createdAt,value
2023-11-20T00:01:53.768Z,9.35
2023-11-20T00:05:56.824Z,9.27
2023-11-20T00:09:58.570Z,9.05
2023-11-20T00:14:00.247Z,8.87
2023-11-20T00:18:02.000Z,8.74
2023-11-20T00:22:05.323Z,8.64
2023-11-20T00:26:11.367Z,8.61
2023-11-20T00:30:13.978Z,8.55
2023-11-20T00:34:15.587Z,8.49
2023-11-20T00:38:18.716Z,8.42
2023-11-20T00:42:20.363Z,8.41
2023-11-20T00:46:22.153Z,8.32
2023-11-20T00:50:23.829Z,8.35
2023-11-20T00:54:27.020Z,8.18
2023-11-20T00:58:28.716Z,8.14
2023-11-20T01:02:30.456Z,8.22
2023-11-20T01:06:32.158Z,8.19
2023-11-20T01:10:35.176Z,8.19
2023-11-20T01:14:36.954Z,8.14
2023-11-20T01:18:38.640Z,8.16
2023-11-20T01:22:40.426Z,8.24
2023-11-20T01:26:43.461Z,8.28
2023-11-20T01:30:45.126Z,8.35
2023-11-20T01:34:46.953Z,8.34
2023-11-20T01:38:48.623Z,8.31
2023-11-20T01:42:51.756Z,8.27
2023-11-20T01:46:53.565Z,8.22
2023-11-20T01:50:55.480Z,8.24
2023-11-20T01:54:57.620Z,8.23
2023-11-20T01:59:02.835Z,8.03
2023-11-20T02:03:05.703Z,8.04
2023-11-20T02:07:07.568Z,8.10
2023-11-20T02:11:09.279Z,8.07
2023-11-20T02:15:12.600Z,8.09
2023-11-20T02:19:14.817Z,8.05
2023-11-20T02:23:16.563Z,8.03
2023-11-20T02:27:32.223Z,8.05
2023-11-20T02:31:35.405Z,7.97
2023-11-20T02:35:37.120Z,7.96
2023-11-20T02:39:38.815Z,7.99
2023-11-20T02:43:40.470Z,7.96
2023-11-20T02:47:43.560Z,7.98
2023-11-20T02:51:45.291Z,8.08
2023-11-20T02:55:46.989Z,8.00
2023-11-20T02:59:48.684Z,8.03
2023-11-20T03:03:51.868Z,7.94
2023-11-20T03:07:53.584Z,7.93
2023-11-20T03:11:55.321Z,7.85
2023-11-20T03:15:57.059Z,8.05
2023-11-20T03:20:00.283Z,8.04
2023-11-20T03:24:01.990Z,8.14
2023-11-20T03:28:03.823Z,8.18
2023-11-20T03:32:05.902Z,8.11
2023-11-20T03:36:10.016Z,8.07
2023-11-20T03:40:13.105Z,8.05
2023-11-20T03:44:14.757Z,8.10
2023-11-20T03:48:16.420Z,8.08
2023-11-20T03:52:19.798Z,8.06
2023-11-20T03:56:21.448Z,8.11
2023-11-20T04:00:23.220Z,8.11
2023-11-20T04:04:24.898Z,8.15
2023-11-20T04:08:27.937Z,8.21
2023-11-20T04:12:29.575Z,8.24
2023-11-20T04:16:31.646Z,8.19
2023-11-20T04:20:33.673Z,8.18
2023-11-20T04:24:37.100Z,8.24
2023-11-20T04:28:38.800Z,8.45
2023-11-20T04:32:40.490Z,8.36
2023-11-20T04:36:42.269Z,8.53
2023-11-20T04:40:45.431Z,8.55
2023-11-20T04:44:47.093Z,8.53
2023-11-20T04:48:48.794Z,8.46
2023-11-20T04:52:50.496Z,8.64
2023-11-20T04:56:53.697Z,8.54
2023-11-20T05:00:55.553Z,8.61
2023-11-20T05:04:57.391Z,8.57
2023-11-20T05:08:59.161Z,8.45
2023-11-20T05:13:03.162Z,8.35
2023-11-20T05:17:05.092Z,8.37
2023-11-20T05:21:07.062Z,8.38
2023-11-20T05:25:09.824Z,8.33
2023-11-20T05:29:12.858Z,8.43
2023-11-20T05:33:15.400Z,8.46
2023-11-20T05:37:17.190Z,8.34
2023-11-20T05:41:18.937Z,8.45
2023-11-20T05:45:22.008Z,8.33
2023-11-20T05:49:23.684Z,8.40
2023-11-20T05:53:25.410Z,8.41
2023-11-20T05:57:27.096Z,8.42
2023-11-20T06:01:38.018Z,8.43
2023-11-20T06:05:39.751Z,8.58
2023-11-20T06:09:41.447Z,8.49
2023-11-20T06:13:43.171Z,8.60
2023-11-20T06:17:46.224Z,8.67
2023-11-20T06:21:48.657Z,8.70
2023-11-20T06:25:50.342Z,8.71
2023-11-20T06:29:52.118Z,8.90
2023-11-20T06:33:55.502Z,8.98
2023-11-20T06:37:57.335Z,8.92
2023-11-20T06:41:59.031Z,8.92
2023-11-20T06:46:00.964Z,8.99
2023-11-20T06:50:04.976Z,9.08
2023-11-20T06:54:06.772Z,9.09
2023-11-20T06:58:08.462Z,9.16
2023-11-20T07:02:10.209Z,9.20
2023-11-20T07:06:14.237Z,9.10
2023-11-20T07:10:15.917Z,9.22
2023-11-20T07:14:17.631Z,9.33
2023-11-20T07:18:19.313Z,9.27
2023-11-20T07:22:22.445Z,9.36
2023-11-20T07:26:24.183Z,9.43
2023-11-20T07:30:25.798Z,9.27
2023-11-20T07:34:27.503Z,9.29
2023-11-20T07:38:30.588Z,9.25
2023-11-20T07:42:32.257Z,9.35
2023-11-20T07:46:34.026Z,9.34
2023-11-20T07:50:35.720Z,9.27
2023-11-20T07:54:38.808Z,9.35
2023-11-20T07:58:40.461Z,9.29
2023-11-20T08:02:42.445Z,9.15
2023-11-20T08:06:44.497Z,9.10
2023-11-20T08:10:47.538Z,9.25
2023-11-20T08:14:49.171Z,9.38
2023-11-20T08:18:50.786Z,9.34
2023-11-20T08:22:52.620Z,9.38
2023-11-20T08:26:56.962Z,9.45
2023-11-20T08:30:58.723Z,9.51
2023-11-20T08:35:00.469Z,9.74
2023-11-20T08:39:02.131Z,9.73
2023-11-20T08:43:05.260Z,9.72
2023-11-20T08:47:07.045Z,9.83
2023-11-20T08:51:08.935Z,9.83
2023-11-20T08:55:10.689Z,9.89
2023-11-20T08:59:13.902Z,9.81
2023-11-20T09:03:15.659Z,9.90
2023-11-20T09:07:17.458Z,9.92
2023-11-20T09:11:19.118Z,10.06
2023-11-20T09:15:22.293Z,10.12
2023-11-20T09:19:23.985Z,10.05
2023-11-20T09:23:25.633Z,10.08
2023-11-20T09:27:27.333Z,9.93
2023-11-20T09:31:30.471Z,9.92
2023-11-20T09:35:32.202Z,10.00
2023-11-20T09:39:33.919Z,9.85
2023-11-20T09:43:37.349Z,9.70
2023-11-20T09:47:41.610Z,9.61
2023-11-20T09:51:44.662Z,9.35
2023-11-20T09:55:46.659Z,9.26
2023-11-20T09:59:48.439Z,9.11
2023-11-20T10:03:53.366Z,9.02
2023-11-20T10:07:58.343Z,9.07
2023-11-20T10:12:01.677Z,9.03
2023-11-20T10:16:08.826Z,9.01
2023-11-20T10:20:12.147Z,9.00
2023-11-20T10:24:16.882Z,8.99
2023-11-20T10:28:22.551Z,9.01
2023-11-20T10:32:27.099Z,9.02
2023-11-20T10:36:30.195Z,9.04
2023-11-20T10:40:32.072Z,8.89
2023-11-20T10:44:35.227Z,8.78
2023-11-20T10:48:38.228Z,8.89
2023-11-20T10:52:42.601Z,8.93
2023-11-20T10:56:44.399Z,8.97
2023-11-20T11:00:46.755Z,8.89
2023-11-20T11:04:52.741Z,8.88
2023-11-20T11:08:56.070Z,8.94
2023-11-20T11:13:01.795Z,9.04
2023-11-20T11:17:07.942Z,9.18
2023-11-20T11:21:11.561Z,9.21
2023-11-20T11:25:16.811Z,9.30
2023-11-20T11:29:23.065Z,9.28
2023-11-20T11:34:11.136Z,9.28
2023-11-20T11:38:26.456Z,9.24
2023-11-20T11:42:38.430Z,9.23
2023-11-20T11:46:40.156Z,9.16
2023-11-20T11:50:41.895Z,9.11
2023-11-20T11:54:43.590Z,9.04
2023-11-20T11:58:48.105Z,9.07
2023-11-20T12:02:54.247Z,8.98
2023-11-20T12:07:03.251Z,8.96
2023-11-20T12:11:05.631Z,8.91
2023-11-20T12:15:32.365Z,8.90
2023-11-20T12:19:34.448Z,9.01
2023-11-20T12:23:37.331Z,9.07
2023-11-20T12:27:38.997Z,9.07
2023-11-20T12:31:42.099Z,9.06
2023-11-20T12:35:43.960Z,9.25
2023-11-20T12:39:45.801Z,9.24
2023-11-20T12:43:48.948Z,9.33
2023-11-20T12:47:56.037Z,9.36
2023-11-20T12:51:58.195Z,9.38
2023-11-20T12:56:02.070Z,9.35
2023-11-20T13:00:04.705Z,9.34
2023-11-20T13:04:08.939Z,9.44
2023-11-20T13:08:10.896Z,9.34
2023-11-20T13:12:13.168Z,9.35
2023-11-20T13:16:16.034Z,9.27
2023-11-20T13:20:42.574Z,9.17
2023-11-20T13:24:54.192Z,9.23
2023-11-20T13:28:59.158Z,9.28
2023-11-20T13:33:00.953Z,9.27
2023-11-20T13:37:04.429Z,9.27
2023-11-20T13:41:06.878Z,9.19
2023-11-20T13:45:09.687Z,9.23
2023-11-20T13:49:11.750Z,9.28
2023-11-20T13:53:16.081Z,9.22
2023-11-20T13:57:17.767Z,9.12
2023-11-20T14:01:19.730Z,8.96
2023-11-20T14:05:21.463Z,8.82
2023-11-20T14:09:24.648Z,8.71
2023-11-20T14:13:26.677Z,8.69
2023-11-20T14:17:28.582Z,8.64
2023-11-20T14:21:30.348Z,8.60
2023-11-20T14:25:34.113Z,8.59
2023-11-20T14:29:35.947Z,8.70
2023-11-20T14:33:38.265Z,8.65
2023-11-20T14:37:40.513Z,8.57
2023-11-20T14:41:43.544Z,8.55
2023-11-20T14:45:45.270Z,8.54
2023-11-20T14:49:47.006Z,8.45
2023-11-20T14:53:48.765Z,8.57
2023-11-20T14:57:52.053Z,8.62
2023-11-20T15:01:53.717Z,8.61
2023-11-20T15:05:55.346Z,8.67
2023-11-20T15:09:57.255Z,8.62
2023-11-20T15:14:00.408Z,8.62
2023-11-20T15:18:02.292Z,8.75
2023-11-20T15:22:04.328Z,8.60
2023-11-20T15:26:06.304Z,8.51
2023-11-20T15:30:10.250Z,8.48
2023-11-20T15:34:12.054Z,8.56
2023-11-20T15:38:14.175Z,8.55
2023-11-20T15:42:15.904Z,8.53
2023-11-20T15:46:19.078Z,8.45
2023-11-20T15:50:20.830Z,8.58
2023-11-20T15:54:22.572Z,8.57
2023-11-20T15:58:24.251Z,8.73
2023-11-20T16:02:27.680Z,8.64
2023-11-20T16:06:29.385Z,8.54
2023-11-20T16:10:31.211Z,8.44
2023-11-20T16:14:32.886Z,8.40
2023-11-20T16:18:35.958Z,8.32
2023-11-20T16:22:37.628Z,8.17
2023-11-20T16:26:39.295Z,8.12
2023-11-20T16:30:41.029Z,8.00
2023-11-20T16:34:44.120Z,8.02
2023-11-20T16:38:46.258Z,7.97
2023-11-20T16:42:47.905Z,7.94
2023-11-20T16:46:50.143Z,7.96
2023-11-20T16:50:53.345Z,7.90
2023-11-20T16:54:57.005Z,7.92
2023-11-20T16:58:58.777Z,8.07
2023-11-20T17:03:00.990Z,8.04
2023-11-20T17:07:04.747Z,8.01
2023-11-20T17:11:06.620Z,7.98
2023-11-20T17:15:09.225Z,8.01
2023-11-20T17:19:11.217Z,8.05
2023-11-20T17:23:14.234Z,8.03
2023-11-20T17:27:15.910Z,8.01
2023-11-20T17:31:17.683Z,8.05
2023-11-20T17:35:19.571Z,7.96
2023-11-20T17:39:22.588Z,7.87
2023-11-20T17:43:24.329Z,7.84
2023-11-20T17:47:26.221Z,7.89
2023-11-20T17:51:27.921Z,7.89
2023-11-20T17:55:30.945Z,7.78
2023-11-20T17:59:32.786Z,7.83
2023-11-20T18:03:34.681Z,7.73
2023-11-20T18:07:37.511Z,7.74
2023-11-20T18:11:40.630Z,7.67
2023-11-20T18:15:42.289Z,7.63
2023-11-20T18:19:43.929Z,7.63
2023-11-20T18:23:48.621Z,7.58
2023-11-20T18:27:53.825Z,7.72
2023-11-20T18:31:55.750Z,7.60
2023-11-20T18:35:57.455Z,7.53
2023-11-20T18:39:59.138Z,7.46
2023-11-20T18:44:03.622Z,7.43
2023-11-20T18:48:06.574Z,7.42
2023-11-20T18:52:08.779Z,7.41
2023-11-20T18:56:10.694Z,7.38
2023-11-20T19:00:15.289Z,7.36
2023-11-20T19:04:17.060Z,7.31
2023-11-20T19:08:18.771Z,7.24
2023-11-20T19:12:20.407Z,7.20
2023-11-20T19:16:23.550Z,7.16
2023-11-20T19:20:25.248Z,7.15
2023-11-20T19:24:26.884Z,7.09
2023-11-20T19:28:28.610Z,7.16
2023-11-20T19:32:31.699Z,7.17
2023-11-20T19:36:33.530Z,7.05
2023-11-20T19:40:35.286Z,6.82
2023-11-20T19:44:36.952Z,6.66
2023-11-20T19:48:40.128Z,6.55
2023-11-20T19:52:41.835Z,6.40
2023-11-20T19:56:43.545Z,6.33
2023-11-20T20:00:45.236Z,6.27
2023-11-20T20:04:48.289Z,6.21
2023-11-20T20:08:49.966Z,6.24
2023-11-20T20:12:51.745Z,6.23
2023-11-20T20:16:53.591Z,6.19
2023-11-20T20:20:56.706Z,6.14
2023-11-20T20:24:58.350Z,6.12
2023-11-20T20:29:00.120Z,6.13
2023-11-20T20:33:02.048Z,6.10
2023-11-20T20:37:05.371Z,6.13
2023-11-20T20:41:07.029Z,6.12
2023-11-20T20:45:09.396Z,6.10
2023-11-20T20:49:11.274Z,6.09
2023-11-20T20:53:14.389Z,6.17
2023-11-20T20:57:16.436Z,6.07
2023-11-20T21:01:18.126Z,6.01
2023-11-20T21:05:19.834Z,5.92
2023-11-20T21:09:22.860Z,5.80
2023-11-20T21:13:24.540Z,5.70
2023-11-20T21:17:26.246Z,5.62
2023-11-20T21:21:27.929Z,5.44
2023-11-20T21:25:30.992Z,5.48
2023-11-20T21:29:32.629Z,5.56
2023-11-20T21:33:34.430Z,5.65
2023-11-20T21:37:36.161Z,5.64
2023-11-20T21:41:39.323Z,5.65
2023-11-20T21:45:41.205Z,5.70
2023-11-20T21:49:42.977Z,5.68
2023-11-20T21:53:44.647Z,5.62
2023-11-20T21:57:47.647Z,5.57
2023-11-20T22:01:49.884Z,5.49
2023-11-20T22:05:51.593Z,5.41
2023-11-20T22:09:53.378Z,5.30
2023-11-20T22:13:56.482Z,5.39
2023-11-20T22:17:58.465Z,5.54
2023-11-20T22:22:00.115Z,5.72
2023-11-20T22:26:01.930Z,5.81
2023-11-20T22:30:06.062Z,5.93
2023-11-20T22:34:07.796Z,5.98
2023-11-20T22:38:09.517Z,6.20
2023-11-20T22:42:11.608Z,6.14
2023-11-20T22:46:14.704Z,6.14
2023-11-20T22:50:16.573Z,6.12
2023-11-20T22:54:18.312Z,6.06
2023-11-20T22:58:20.000Z,5.96
2023-11-20T23:02:23.251Z,5.86
2023-11-20T23:06:25.022Z,5.96
2023-11-20T23:10:26.788Z,6.08
2023-11-20T23:14:28.483Z,6.16
2023-11-20T23:18:31.575Z,6.24
2023-11-20T23:22:33.338Z,6.36
2023-11-20T23:26:35.104Z,6.44
2023-11-20T23:30:37.545Z,6.45
2023-11-20T23:34:40.561Z,6.52
2023-11-20T23:38:42.236Z,6.50
2023-11-20T23:42:44.639Z,6.64
2023-11-20T23:46:46.375Z,6.55
2023-11-20T23:50:49.617Z,6.58
2023-11-20T23:54:51.275Z,6.59
2023-11-20T23:58:52.982Z,6.56
